Time;durP1;ratioP1;P1;durP2;ratioP2;P2;SDS_P1;SDS_P2;PMS_P1;PMS_P2;Temp;Humidity;BMP_temperature;BMP_pressure;BME280_temperature;BME280_humidity;BME280_pressure;Samples;Min_cycle;Max_cycle;Signal;HPM_P1;HPM_P2
2023/01/26 00:00:20;;;;;;;20.93;6.47;;;;;;;;;;4991129;28;20204;-59
2023/01/26 00:02:47;;;;;;;13.37;6.47;;;;;;;;;;4988225;28;20216;-57
2023/01/26 00:05:14;;;;;;;66.40;8.60;;;;;;;;;;4989674;28;20203;-55
2023/01/26 00:07:44;;;;;;;16.80;6.53;;;;;;;;;;4988645;28;20208;-56
2023/01/26 00:10:11;;;;;;;10.13;6.00;;;;;;;;;;4988097;28;20197;-58
2023/01/26 00:12:39;;;;;;;21.73;6.70;;;;;;;;;;4989948;28;20210;-58
2023/01/26 00:15:07;;;;;;;18.60;6.20;;;;;;;;;;4993738;28;20198;-58
2023/01/26 00:17:37;;;;;;;12.20;5.90;;;;;;;;;;4991111;28;20216;-58
2023/01/26 00:20:04;;;;;;;7.83;5.83;;;;;;;;;;4989499;28;20247;-56
2023/01/26 00:22:31;;;;;;;8.73;6.10;;;;;;;;;;4988172;28;20245;-57
2023/01/26 00:24:59;;;;;;;9.90;5.67;;;;;;;;;;4990962;28;20204;-58
2023/01/26 00:27:26;;;;;;;7.47;5.30;;;;;;;;;;4984364;28;20189;-57
2023/01/26 00:29:54;;;;;;;7.07;5.30;;;;;;;;;;4987539;28;20207;-58
2023/01/26 00:32:21;;;;;;;8.13;5.90;;;;;;;;;;4989413;28;20196;-57
2023/01/26 00:34:48;;;;;;;11.27;6.00;;;;;;;;;;4994811;28;20201;-58
2023/01/26 00:37:15;;;;;;;7.50;5.87;;;;;;;;;;4991794;28;20225;-58
2023/01/26 00:39:43;;;;;;;10.70;6.43;;;;;;;;;;4993121;28;20201;-58
2023/01/26 00:42:12;;;;;;;8.17;6.07;;;;;;;;;;4998230;28;20225;-57
2023/01/26 00:44:40;;;;;;;11.07;6.20;;;;;;;;;;4991078;28;20221;-58
2023/01/26 00:47:09;;;;;;;9.17;6.20;;;;;;;;;;4993105;28;20227;-59
2023/01/26 00:49:36;;;;;;;10.57;6.47;;;;;;;;;;4994597;28;20204;-58
2023/01/26 00:52:04;;;;;;;9.93;6.20;;;;;;;;;;4994313;28;20273;-59
2023/01/26 00:54:31;;;;;;;23.67;5.93;;;;;;;;;;4994401;28;20220;-57
2023/01/26 00:56:58;;;;;;;13.60;5.90;;;;;;;;;;4992174;28;20240;-55
2023/01/26 00:59:25;;;;;;;8.73;6.30;;;;;;;;;;4988330;28;20197;-59
2023/01/26 01:01:52;;;;;;;7.37;5.87;;;;;;;;;;4992181;28;20327;-58
2023/01/26 01:04:21;;;;;;;9.53;6.20;;;;;;;;;;4993976;28;20243;-57
2023/01/26 01:06:48;;;;;;;6.87;5.30;;;;;;;;;;4994001;28;20193;-57
2023/01/26 01:09:15;;;;;;;8.07;6.00;;;;;;;;;;4996740;28;20208;-58
2023/01/26 01:11:44;;;;;;;6.23;4.83;;;;;;;;;;4991514;28;20450;-58
2023/01/26 01:14:11;;;;;;;8.83;5.60;;;;;;;;;;4987690;28;20225;-57
2023/01/26 01:16:38;;;;;;;15.17;6.03;;;;;;;;;;4991444;28;20220;-56
2023/01/26 01:19:05;;;;;;;10.27;5.80;;;;;;;;;;4989338;28;20205;-58
2023/01/26 01:21:35;;;;;;;11.70;5.53;;;;;;;;;;4993801;28;20217;-57
2023/01/26 01:24:02;;;;;;;7.20;5.67;;;;;;;;;;4990087;28;20336;-58
2023/01/26 01:26:29;;;;;;;14.33;5.97;;;;;;;;;;4992310;28;20263;-58
2023/01/26 01:28:57;;;;;;;7.73;5.37;;;;;;;;;;4990851;28;20205;-58
2023/01/26 01:31:24;;;;;;;9.17;5.73;;;;;;;;;;4990972;28;20284;-57
2023/01/26 01:33:52;;;;;;;6.80;5.47;;;;;;;;;;4992996;28;20197;-58
2023/01/26 01:36:19;;;;;;;8.43;5.70;;;;;;;;;;4992518;28;20205;-57
2023/01/26 01:38:48;;;;;;;9.43;5.40;;;;;;;;;;4987530;28;20220;-58
2023/01/26 01:41:16;;;;;;;10.53;5.93;;;;;;;;;;4986151;28;20220;-57
2023/01/26 01:43:43;;;;;;;6.20;4.67;;;;;;;;;;4989211;28;20227;-56
2023/01/26 01:46:15;;;;;;;9.23;5.60;;;;;;;;;;4986796;28;20485;-56
2023/01/26 01:48:46;;;;;;;6.63;5.07;;;;;;;;;;4989490;28;20216;-57
2023/01/26 01:51:15;;;;;;;10.70;6.40;;;;;;;;;;4987867;28;20188;-56
2023/01/26 01:53:43;;;;;;;16.37;6.17;;;;;;;;;;4987282;28;20216;-59
2023/01/26 01:56:13;;;;;;;8.70;5.90;;;;;;;;;;4985763;28;20251;-57
2023/01/26 01:58:43;;;;;;;10.37;6.37;;;;;;;;;;4988107;28;20203;-55
2023/01/26 02:01:11;;;;;;;23.50;7.07;;;;;;;;;;4992942;28;20203;-56
2023/01/26 02:03:39;;;;;;;27.60;7.20;;;;;;;;;;4986559;28;20200;-57
2023/01/26 02:06:11;;;;;;;12.20;7.30;;;;;;;;;;4988194;28;20211;-55
2023/01/26 02:08:39;;;;;;;19.33;7.43;;;;;;;;;;4989189;28;20240;-57
2023/01/26 02:11:08;;;;;;;12.80;7.67;;;;;;;;;;4991205;28;20231;-54
2023/01/26 02:13:37;;;;;;;18.33;7.23;;;;;;;;;;4991766;28;20212;-57
2023/01/26 02:16:04;;;;;;;20.77;8.27;;;;;;;;;;4987923;28;20192;-58
2023/01/26 02:18:31;;;;;;;15.00;7.40;;;;;;;;;;4990726;28;20209;-58
2023/01/26 02:21:01;;;;;;;10.23;7.00;;;;;;;;;;4986802;28;20469;-55
2023/01/26 02:23:34;;;;;;;10.47;7.03;;;;;;;;;;4987623;28;20263;-57
2023/01/26 02:26:05;;;;;;;13.03;7.67;;;;;;;;;;4987563;28;20222;-58
2023/01/26 02:28:32;;;;;;;10.40;7.07;;;;;;;;;;4988407;28;20205;-58
2023/01/26 02:31:00;;;;;;;11.40;7.70;;;;;;;;;;4987548;28;20209;-57
2023/01/26 02:33:28;;;;;;;17.27;8.37;;;;;;;;;;4987946;28;20226;-59
2023/01/26 02:35:55;;;;;;;15.23;8.07;;;;;;;;;;4989633;28;20213;-57
2023/01/26 02:38:24;;;;;;;13.10;8.00;;;;;;;;;;4994306;28;20500;-56
2023/01/26 02:40:53;;;;;;;13.67;8.23;;;;;;;;;;4989870;28;20216;-56
2023/01/26 02:43:21;;;;;;;13.00;8.13;;;;;;;;;;4987359;28;20217;-57
2023/01/26 02:45:48;;;;;;;14.83;7.40;;;;;;;;;;4990043;28;20214;-57
2023/01/26 02:49:45;;;;;;;11.30;7.43;;;;;;;;;;4988069;28;20434;-56
2023/01/26 02:51:01;;;;;;;12.53;7.30;;;;;;;;;;4987486;28;21738;-56
2023/01/26 02:53:28;;;;;;;13.87;8.40;;;;;;;;;;4990048;28;20204;-56
2023/01/26 02:55:54;;;;;;;12.57;7.67;;;;;;;;;;4990576;28;20418;-56
2023/01/26 02:58:23;;;;;;;13.20;7.90;;;;;;;;;;4988606;28;20194;-56
2023/01/26 03:00:50;;;;;;;10.30;6.90;;;;;;;;;;4982786;28;20235;-58
2023/01/26 03:03:19;;;;;;;12.00;7.50;;;;;;;;;;4987036;28;20220;-58
2023/01/26 03:05:46;;;;;;;11.07;7.50;;;;;;;;;;4985121;28;20209;-57
2023/01/26 03:08:13;;;;;;;12.33;8.03;;;;;;;;;;4988598;28;20201;-56
2023/01/26 03:10:41;;;;;;;12.70;7.97;;;;;;;;;;4986366;28;20205;-57
2023/01/26 03:13:08;;;;;;;11.67;7.63;;;;;;;;;;4989108;28;20209;-58
2023/01/26 03:15:42;;;;;;;12.77;7.67;;;;;;;;;;4988972;28;20209;-57
2023/01/26 03:29:10;;;;;;;11.43;7.40;;;;;;;;;;4981534;28;20203;-56
2023/01/26 03:31:38;;;;;;;10.67;7.60;;;;;;;;;;4981090;28;20236;-55
2023/01/26 03:34:05;;;;;;;11.10;7.63;;;;;;;;;;4979142;28;20209;-56
2023/01/26 03:36:33;;;;;;;10.60;7.23;;;;;;;;;;4980778;28;20228;-58
2023/01/26 03:39:00;;;;;;;11.93;7.90;;;;;;;;;;4980468;28;20207;-55
2023/01/26 03:58:01;;;;;;;11.13;7.63;;;;;;;;;;4980285;28;20350;-57
2023/01/26 04:00:28;;;;;;;12.27;7.73;;;;;;;;;;4982143;28;20209;-58
2023/01/26 04:08:26;;;;;;;10.33;7.23;;;;;;;;;;4985849;28;20445;-58
2023/01/26 04:10:54;;;;;;;12.60;8.13;;;;;;;;;;4985282;28;20577;-54
2023/01/26 04:21:39;;;;;;;13.80;8.23;;;;;;;;;;4982545;28;20401;-57
2023/01/26 04:24:08;;;;;;;11.63;7.70;;;;;;;;;;4983374;28;20243;-58
2023/01/26 04:26:36;;;;;;;10.93;7.47;;;;;;;;;;4984106;28;20307;-56
2023/01/26 04:29:04;;;;;;;14.20;8.23;;;;;;;;;;4986102;28;20213;-55
2023/01/26 04:31:31;;;;;;;12.10;7.77;;;;;;;;;;4984720;28;20303;-58
2023/01/26 04:34:00;;;;;;;11.67;7.80;;;;;;;;;;4986991;28;20228;-57
2023/01/26 04:36:27;;;;;;;12.17;7.90;;;;;;;;;;4983040;28;20204;-56
2023/01/26 04:38:54;;;;;;;12.33;7.90;;;;;;;;;;4985076;28;20218;-59
2023/01/26 04:41:21;;;;;;;10.77;7.70;;;;;;;;;;4986749;28;20215;-59
2023/01/26 04:43:48;;;;;;;13.67;8.70;;;;;;;;;;4988299;28;20232;-59
2023/01/26 04:46:16;;;;;;;11.67;7.73;;;;;;;;;;4985414;28;20217;-56
2023/01/26 04:48:43;;;;;;;12.50;8.03;;;;;;;;;;4983352;28;20207;-57
2023/01/26 04:51:13;;;;;;;13.10;7.97;;;;;;;;;;4985585;28;20212;-57
2023/01/26 04:53:40;;;;;;;12.77;7.67;;;;;;;;;;4982567;28;20213;-58
2023/01/26 04:56:08;;;;;;;13.77;8.33;;;;;;;;;;4987725;28;20204;-57
2023/01/26 04:58:36;;;;;;;13.77;9.03;;;;;;;;;;4984600;28;20263;-56
2023/01/26 05:01:03;;;;;;;16.50;9.73;;;;;;;;;;4982347;28;20216;-59
2023/01/26 05:03:30;;;;;;;14.83;9.50;;;;;;;;;;4983512;28;20276;-58
2023/01/26 05:05:57;;;;;;;15.83;10.00;;;;;;;;;;4983160;28;20208;-58
2023/01/26 05:08:25;;;;;;;15.50;9.57;;;;;;;;;;4988549;28;20204;-58
2023/01/26 05:10:52;;;;;;;17.77;10.77;;;;;;;;;;4981683;28;20387;-59
2023/01/26 05:13:20;;;;;;;16.20;9.77;;;;;;;;;;4980485;28;20212;-56
2023/01/26 05:15:47;;;;;;;16.50;10.00;;;;;;;;;;4983262;28;20216;-58
2023/01/26 05:18:14;;;;;;;17.90;10.47;;;;;;;;;;4987128;28;20506;-52
2023/01/26 05:20:41;;;;;;;18.37;10.73;;;;;;;;;;4989548;28;20204;-56
2023/01/26 05:23:08;;;;;;;15.87;10.23;;;;;;;;;;4993279;28;20242;-57
2023/01/26 05:25:37;;;;;;;13.27;9.07;;;;;;;;;;4995660;28;20205;-57
2023/01/26 05:28:04;;;;;;;17.57;10.40;;;;;;;;;;4989309;28;20287;-57
2023/01/26 05:30:31;;;;;;;17.20;10.47;;;;;;;;;;4991503;28;20200;-57
2023/01/26 05:33:01;;;;;;;17.00;10.07;;;;;;;;;;4986907;28;20189;-57
2023/01/26 05:35:28;;;;;;;17.27;10.07;;;;;;;;;;4993085;28;20216;-59
2023/01/26 05:37:55;;;;;;;14.23;9.93;;;;;;;;;;4987387;28;20208;-58
2023/01/26 05:40:22;;;;;;;17.03;10.70;;;;;;;;;;4983089;28;20261;-59
2023/01/26 05:42:51;;;;;;;15.00;10.10;;;;;;;;;;4986814;28;20256;-57
2023/01/26 05:45:18;;;;;;;14.47;9.57;;;;;;;;;;4990517;28;20467;-58
2023/01/26 05:47:45;;;;;;;16.60;10.43;;;;;;;;;;4991155;28;20204;-59
2023/01/26 05:50:13;;;;;;;14.97;9.53;;;;;;;;;;4987551;28;20222;-57
2023/01/26 05:52:40;;;;;;;15.13;9.47;;;;;;;;;;4985586;28;20237;-58
2023/01/26 05:55:07;;;;;;;15.60;10.00;;;;;;;;;;4988233;28;20307;-57
2023/01/26 05:57:35;;;;;;;15.83;10.40;;;;;;;;;;4987297;28;20215;-55
2023/01/26 06:00:05;;;;;;;14.07;9.53;;;;;;;;;;4988562;28;20202;-54
2023/01/26 06:02:32;;;;;;;16.23;10.20;;;;;;;;;;4983804;28;20229;-57
2023/01/26 06:05:00;;;;;;;12.90;8.33;;;;;;;;;;4983644;28;20289;-59
2023/01/26 06:07:27;;;;;;;16.40;9.93;;;;;;;;;;4989214;28;20442;-58
2023/01/26 06:09:55;;;;;;;16.10;9.97;;;;;;;;;;4983567;28;20216;-57
2023/01/26 06:12:23;;;;;;;17.07;9.83;;;;;;;;;;4990273;28;20197;-56
2023/01/26 06:14:52;;;;;;;13.83;9.23;;;;;;;;;;4990224;28;20205;-57
2023/01/26 06:17:21;;;;;;;15.43;9.43;;;;;;;;;;4983078;28;20281;-54
2023/01/26 06:19:48;;;;;;;14.07;8.93;;;;;;;;;;4985651;28;20228;-57
2023/01/26 06:22:16;;;;;;;13.90;8.47;;;;;;;;;;4987468;28;20336;-56
2023/01/26 06:24:43;;;;;;;13.73;8.60;;;;;;;;;;4989127;28;20200;-57
2023/01/26 06:27:13;;;;;;;12.63;9.67;;;;;;;;;;4988581;28;20584;-57
2023/01/26 06:29:41;;;;;;;13.97;9.60;;;;;;;;;;4983437;28;20220;-58
2023/01/26 06:32:09;;;;;;;12.93;9.27;;;;;;;;;;4988750;28;20324;-58
2023/01/26 06:34:37;;;;;;;12.27;8.63;;;;;;;;;;4984051;28;20217;-57
2023/01/26 06:37:05;;;;;;;12.23;9.07;;;;;;;;;;4983609;28;20237;-58
2023/01/26 06:39:32;;;;;;;13.80;9.30;;;;;;;;;;4985570;28;20196;-58
2023/01/26 06:41:59;;;;;;;12.50;9.57;;;;;;;;;;4992808;28;20209;-59
2023/01/26 06:44:26;;;;;;;11.43;8.27;;;;;;;;;;4986790;28;20342;-57
2023/01/26 06:46:54;;;;;;;10.07;8.10;;;;;;;;;;4991679;28;20201;-57
2023/01/26 06:49:21;;;;;;;11.27;8.70;;;;;;;;;;4989688;28;20301;-55
2023/01/26 06:51:53;;;;;;;11.53;8.03;;;;;;;;;;4995477;28;20201;-58
2023/01/26 06:54:20;;;;;;;10.93;7.67;;;;;;;;;;4993729;28;20201;-53
2023/01/26 06:56:47;;;;;;;10.27;8.47;;;;;;;;;;4990918;28;20292;-56
2023/01/26 06:59:14;;;;;;;14.40;10.57;;;;;;;;;;4996950;28;20204;-58
2023/01/26 07:01:43;;;;;;;11.63;8.87;;;;;;;;;;4985366;28;20247;-57
2023/01/26 07:04:11;;;;;;;15.97;11.27;;;;;;;;;;4988855;28;20227;-57
2023/01/26 07:06:38;;;;;;;11.90;8.80;;;;;;;;;;4993199;28;20324;-56
2023/01/26 07:09:11;;;;;;;12.13;8.70;;;;;;;;;;4990362;28;20323;-57
2023/01/26 07:11:39;;;;;;;10.90;7.93;;;;;;;;;;4993675;28;20302;-58
2023/01/26 07:14:06;;;;;;;10.93;8.17;;;;;;;;;;4991408;28;20224;-58
2023/01/26 07:16:34;;;;;;;9.87;7.97;;;;;;;;;;4990016;28;20205;-54
2023/01/26 07:19:01;;;;;;;10.60;8.20;;;;;;;;;;4989512;28;20209;-57
2023/01/26 07:21:28;;;;;;;11.17;8.73;;;;;;;;;;4992096;28;20197;-57
2023/01/26 07:23:56;;;;;;;9.20;7.03;;;;;;;;;;4992299;28;20519;-57
2023/01/26 07:26:25;;;;;;;8.00;6.70;;;;;;;;;;4992546;28;20211;-57
2023/01/26 07:28:54;;;;;;;8.80;6.87;;;;;;;;;;4985682;28;20218;-58
2023/01/26 07:31:21;;;;;;;7.67;6.37;;;;;;;;;;4987063;28;20263;-58
2023/01/26 07:33:50;;;;;;;8.53;6.63;;;;;;;;;;4993960;28;20209;-54
2023/01/26 07:36:20;;;;;;;9.90;7.03;;;;;;;;;;4988637;28;20216;-58
2023/01/26 07:38:48;;;;;;;8.47;6.70;;;;;;;;;;4995110;28;20205;-58
2023/01/26 07:41:15;;;;;;;8.60;7.00;;;;;;;;;;4991076;28;20204;-57
2023/01/26 07:43:44;;;;;;;8.87;7.03;;;;;;;;;;4995517;28;20224;-57
2023/01/26 07:46:13;;;;;;;9.73;8.00;;;;;;;;;;4990581;28;20205;-58
2023/01/26 07:48:42;;;;;;;11.77;8.40;;;;;;;;;;4989769;28;20304;-58
2023/01/26 07:51:10;;;;;;;8.57;6.97;;;;;;;;;;4991267;28;20202;-55
2023/01/26 07:53:41;;;;;;;8.20;6.77;;;;;;;;;;4992717;28;20263;-56
2023/01/26 07:56:10;;;;;;;8.23;6.67;;;;;;;;;;4986300;28;20209;-57
2023/01/26 07:58:40;;;;;;;8.83;6.77;;;;;;;;;;4993036;28;20228;-58
2023/01/26 08:01:11;;;;;;;8.73;6.70;;;;;;;;;;4986679;28;20212;-57
2023/01/26 08:03:38;;;;;;;9.07;7.43;;;;;;;;;;4987381;28;20220;-57
2023/01/26 08:06:06;;;;;;;8.60;7.00;;;;;;;;;;4990782;28;20252;-57
2023/01/26 08:08:34;;;;;;;9.33;7.60;;;;;;;;;;4988122;28;20206;-57
2023/01/26 08:11:03;;;;;;;8.43;6.93;;;;;;;;;;4990266;28;20533;-58
2023/01/26 08:13:32;;;;;;;7.93;6.60;;;;;;;;;;4991696;28;20279;-57
2023/01/26 08:16:05;;;;;;;8.83;7.47;;;;;;;;;;4987666;28;20205;-58
2023/01/26 08:18:38;;;;;;;9.43;7.50;;;;;;;;;;4990676;28;20201;-58
2023/01/26 08:21:05;;;;;;;8.07;6.50;;;;;;;;;;4980854;28;20218;-57
2023/01/26 08:23:33;;;;;;;8.47;7.27;;;;;;;;;;4975192;28;20468;-58
2023/01/26 08:26:03;;;;;;;9.33;7.10;;;;;;;;;;4981721;28;20217;-58
2023/01/26 08:28:33;;;;;;;7.37;6.53;;;;;;;;;;5003380;28;20207;-58
2023/01/26 08:31:10;;;;;;;8.73;6.60;;;;;;;;;;4985775;28;20213;-57
2023/01/26 08:33:41;;;;;;;7.63;6.67;;;;;;;;;;4985606;28;20201;-56
2023/01/26 08:36:09;;;;;;;7.07;6.13;;;;;;;;;;4992584;28;20223;-59
2023/01/26 08:38:40;;;;;;;6.90;5.70;;;;;;;;;;4992742;28;20210;-55
2023/01/26 08:41:07;;;;;;;8.63;6.90;;;;;;;;;;4985758;28;20239;-55
2023/01/26 08:43:37;;;;;;;7.37;6.03;;;;;;;;;;4998335;28;20256;-59
2023/01/26 09:07:31;;;;;;;8.10;6.30;;;;;;;;;;4994022;28;20184;-57
2023/01/26 09:10:00;;;;;;;8.83;6.13;;;;;;;;;;4987145;28;20209;-57
2023/01/26 09:12:27;;;;;;;9.20;6.87;;;;;;;;;;4992505;28;20411;-59
2023/01/26 09:14:54;;;;;;;7.60;6.10;;;;;;;;;;4991561;28;20292;-56
2023/01/26 09:17:22;;;;;;;9.13;6.77;;;;;;;;;;4997220;28;20197;-57
2023/01/26 09:19:49;;;;;;;9.00;6.50;;;;;;;;;;4993627;28;20201;-56
2023/01/26 09:22:16;;;;;;;7.50;5.87;;;;;;;;;;4997337;28;20254;-55
2023/01/26 09:24:44;;;;;;;7.37;5.67;;;;;;;;;;4988476;28;20247;-57
2023/01/26 09:27:11;;;;;;;8.30;6.00;;;;;;;;;;4995419;28;20212;-56
2023/01/26 09:29:39;;;;;;;9.47;5.80;;;;;;;;;;4993244;28;20211;-54
2023/01/26 09:32:06;;;;;;;8.00;6.00;;;;;;;;;;4993999;28;20317;-55
2023/01/26 09:34:33;;;;;;;8.60;6.40;;;;;;;;;;4994573;28;20196;-54
2023/01/26 09:37:00;;;;;;;10.63;6.97;;;;;;;;;;4993984;28;20216;-57
2023/01/26 09:39:27;;;;;;;8.13;5.93;;;;;;;;;;4996908;28;20200;-56
2023/01/26 09:42:04;;;;;;;8.80;6.37;;;;;;;;;;4993937;28;20287;-58
2023/01/26 09:44:32;;;;;;;7.33;5.43;;;;;;;;;;4992657;28;20224;-53
2023/01/26 09:47:07;;;;;;;8.53;6.37;;;;;;;;;;4990259;28;20201;-56
2023/01/26 09:49:43;;;;;;;7.70;6.03;;;;;;;;;;4996042;28;20263;-56
2023/01/26 09:52:14;;;;;;;7.17;5.53;;;;;;;;;;4989495;28;20224;-55
2023/01/26 09:54:44;;;;;;;8.37;6.10;;;;;;;;;;4991474;28;20205;-55
2023/01/26 09:57:16;;;;;;;7.77;6.10;;;;;;;;;;4994918;28;20460;-58
2023/01/26 09:59:48;;;;;;;8.37;6.33;;;;;;;;;;4987184;28;20221;-58
2023/01/26 10:02:24;;;;;;;8.67;6.83;;;;;;;;;;4991856;28;20204;-58
2023/01/26 10:04:57;;;;;;;8.77;6.17;;;;;;;;;;5002422;28;20233;-54
2023/01/26 10:07:25;;;;;;;9.43;6.87;;;;;;;;;;5003628;28;20209;-57
2023/01/26 10:09:59;;;;;;;8.90;6.23;;;;;;;;;;5001672;28;20208;-57
2023/01/26 10:12:31;;;;;;;8.87;6.23;;;;;;;;;;5003862;28;20218;-51
2023/01/26 10:15:02;;;;;;;7.27;5.43;;;;;;;;;;5004482;28;20216;-57
2023/01/26 10:17:31;;;;;;;11.07;7.30;;;;;;;;;;5007229;28;20208;-58
2023/01/26 10:20:02;;;;;;;7.93;5.87;;;;;;;;;;4997218;28;20216;-58
2023/01/26 10:22:33;;;;;;;8.97;5.73;;;;;;;;;;5000213;28;20264;-55
2023/01/26 10:25:01;;;;;;;7.80;5.53;;;;;;;;;;5000198;28;20228;-58
2023/01/26 10:27:30;;;;;;;8.93;5.77;;;;;;;;;;5002962;28;20216;-53
2023/01/26 10:30:14;;;;;;;7.67;5.43;;;;;;;;;;5003852;28;20205;-57
2023/01/26 10:32:46;;;;;;;7.90;5.93;;;;;;;;;;5003901;28;20205;-57
2023/01/26 10:35:19;;;;;;;8.73;5.87;;;;;;;;;;4998431;28;20268;-55
2023/01/26 10:37:51;;;;;;;8.00;5.70;;;;;;;;;;5001504;28;20209;-58
2023/01/26 10:40:19;;;;;;;9.30;6.50;;;;;;;;;;5007005;28;20201;-58
2023/01/26 10:42:57;;;;;;;7.70;5.67;;;;;;;;;;4999903;28;20260;-58
2023/01/26 10:45:26;;;;;;;8.20;5.53;;;;;;;;;;4999661;28;20283;-55
2023/01/26 10:48:05;;;;;;;8.30;6.00;;;;;;;;;;5003940;28;20263;-54
2023/01/26 10:50:33;;;;;;;8.53;6.07;;;;;;;;;;5003368;28;20296;-54
2023/01/26 10:53:01;;;;;;;9.40;5.97;;;;;;;;;;5003862;28;20197;-54
2023/01/26 10:55:28;;;;;;;9.57;6.27;;;;;;;;;;4997297;28;20225;-51
2023/01/26 10:57:57;;;;;;;7.47;5.60;;;;;;;;;;5003557;28;20204;-56
2023/01/26 11:00:27;;;;;;;8.90;5.70;;;;;;;;;;5004230;28;20485;-56
2023/01/26 11:02:56;;;;;;;7.93;5.47;;;;;;;;;;5004142;28;20262;-56
2023/01/26 11:05:23;;;;;;;8.47;5.90;;;;;;;;;;5003663;28;20252;-56
2023/01/26 11:07:54;;;;;;;9.07;5.87;;;;;;;;;;5000747;28;20216;-57
2023/01/26 11:10:26;;;;;;;8.73;6.17;;;;;;;;;;5000879;28;20211;-54
2023/01/26 11:13:07;;;;;;;8.40;5.63;;;;;;;;;;5003157;28;20307;-56
2023/01/26 11:15:36;;;;;;;9.40;6.73;;;;;;;;;;5003303;28;20293;-55
2023/01/26 11:18:05;;;;;;;10.80;6.80;;;;;;;;;;5003722;28;20231;-55
2023/01/26 11:20:42;;;;;;;9.13;6.43;;;;;;;;;;5003745;28;20295;-57
2023/01/26 11:23:14;;;;;;;10.60;6.10;;;;;;;;;;5004502;28;20252;-55
2023/01/26 11:25:46;;;;;;;8.80;5.97;;;;;;;;;;5003668;28;20232;-54
2023/01/26 11:28:20;;;;;;;8.43;6.20;;;;;;;;;;5003165;28;20220;-54
2023/01/26 11:31:05;;;;;;;10.80;6.20;;;;;;;;;;5004149;28;20605;-56
2023/01/26 11:33:38;;;;;;;9.77;6.60;;;;;;;;;;4997812;28;20201;-57
2023/01/26 11:36:12;;;;;;;9.47;6.47;;;;;;;;;;4999935;28;20296;-58
2023/01/26 11:38:40;;;;;;;10.63;6.77;;;;;;;;;;4996821;28;20210;-56
2023/01/26 11:41:14;;;;;;;9.83;6.30;;;;;;;;;;5002270;28;20219;-56
2023/01/26 11:44:02;;;;;;;9.67;6.30;;;;;;;;;;5002373;28;20209;-56
2023/01/26 11:46:38;;;;;;;12.20;7.63;;;;;;;;;;5001484;28;20298;-57
2023/01/26 11:49:13;;;;;;;10.87;8.00;;;;;;;;;;4997153;28;20210;-55
2023/01/26 11:51:47;;;;;;;9.77;7.03;;;;;;;;;;5002432;28;20215;-57
2023/01/26 11:54:24;;;;;;;9.00;7.07;;;;;;;;;;5000585;28;20208;-57
2023/01/26 11:57:03;;;;;;;9.90;7.07;;;;;;;;;;5003103;28;20250;-54
2023/01/26 11:59:33;;;;;;;8.93;7.03;;;;;;;;;;4989880;28;20209;-59
2023/01/26 12:02:04;;;;;;;11.20;9.37;;;;;;;;;;4995157;28;20216;-55
2023/01/26 12:04:33;;;;;;;9.10;7.13;;;;;;;;;;5001321;28;20239;-57
2023/01/26 12:07:03;;;;;;;9.50;6.83;;;;;;;;;;4998379;28;20204;-56
2023/01/26 12:09:35;;;;;;;11.90;7.53;;;;;;;;;;4999803;28;20205;-57
2023/01/26 12:12:04;;;;;;;11.10;7.33;;;;;;;;;;4999248;28;20243;-57
2023/01/26 12:14:34;;;;;;;11.50;7.07;;;;;;;;;;4997944;28;20202;-58
2023/01/26 12:17:22;;;;;;;11.67;7.73;;;;;;;;;;4997155;28;20228;-57
2023/01/26 12:19:53;;;;;;;10.37;7.47;;;;;;;;;;4995017;28;20268;-54
2023/01/26 12:22:23;;;;;;;11.20;7.83;;;;;;;;;;4998113;28;20234;-56
2023/01/26 12:24:53;;;;;;;10.87;7.57;;;;;;;;;;4998402;28;20224;-56
2023/01/26 12:27:28;;;;;;;15.50;9.80;;;;;;;;;;4999182;28;20215;-57
2023/01/26 12:30:01;;;;;;;14.57;9.07;;;;;;;;;;5004439;28;20208;-56
2023/01/26 12:32:29;;;;;;;12.53;9.23;;;;;;;;;;5005007;28;20197;-56
2023/01/26 12:34:58;;;;;;;13.13;8.97;;;;;;;;;;4997332;28;20206;-58
2023/01/26 12:37:31;;;;;;;11.90;8.83;;;;;;;;;;5001656;28;20215;-53
2023/01/26 12:40:02;;;;;;;13.57;8.70;;;;;;;;;;5005908;28;20226;-55
2023/01/26 12:42:39;;;;;;;11.23;8.20;;;;;;;;;;5005774;28;20295;-55
2023/01/26 12:45:08;;;;;;;12.87;8.73;;;;;;;;;;4999622;28;20298;-58
2023/01/26 12:47:37;;;;;;;13.43;8.87;;;;;;;;;;5000327;28;20398;-55
2023/01/26 12:50:09;;;;;;;11.60;8.47;;;;;;;;;;4998269;28;20213;-58
2023/01/26 12:52:39;;;;;;;14.23;9.37;;;;;;;;;;5001795;28;20205;-55
2023/01/26 12:55:11;;;;;;;11.97;8.57;;;;;;;;;;5000293;28;20201;-59
2023/01/26 12:57:41;;;;;;;16.77;9.87;;;;;;;;;;5003577;28;20213;-55
2023/01/26 13:00:19;;;;;;;14.87;9.13;;;;;;;;;;4999722;28;20298;-57
2023/01/26 13:02:46;;;;;;;12.70;8.67;;;;;;;;;;4997695;28;20213;-57
2023/01/26 13:05:26;;;;;;;14.53;10.43;;;;;;;;;;5000008;28;20221;-58
2023/01/26 13:07:53;;;;;;;13.03;7.80;;;;;;;;;;4997317;28;20200;-59
2023/01/26 13:10:24;;;;;;;12.00;8.70;;;;;;;;;;5000268;28;20211;-58
2023/01/26 13:12:53;;;;;;;11.33;7.73;;;;;;;;;;5002413;28;20248;-55
2023/01/26 13:15:21;;;;;;;14.80;9.87;;;;;;;;;;5004838;28;20205;-58
2023/01/26 13:17:53;;;;;;;10.47;8.17;;;;;;;;;;5001840;28;20303;-56
2023/01/26 13:20:42;;;;;;;11.20;7.70;;;;;;;;;;5009753;28;20288;-56
2023/01/26 13:23:24;;;;;;;10.03;7.40;;;;;;;;;;4999847;28;20240;-55
2023/01/26 13:26:13;;;;;;;14.73;9.97;;;;;;;;;;4990210;28;20229;-56
2023/01/26 13:28:41;;;;;;;12.37;8.90;;;;;;;;;;4997519;28;20243;-57
2023/01/26 13:31:09;;;;;;;15.53;10.10;;;;;;;;;;4999172;28;20292;-59
2023/01/26 13:33:36;;;;;;;14.57;8.90;;;;;;;;;;5001989;28;20205;-55
2023/01/26 13:36:06;;;;;;;19.67;13.37;;;;;;;;;;4996493;28;20205;-55
2023/01/26 13:38:35;;;;;;;14.97;9.60;;;;;;;;;;4996656;28;20212;-57
2023/01/26 13:41:03;;;;;;;14.27;9.77;;;;;;;;;;5003694;28;20209;-55
2023/01/26 13:43:33;;;;;;;13.40;9.17;;;;;;;;;;5003645;28;20201;-54
2023/01/26 13:46:11;;;;;;;13.47;9.20;;;;;;;;;;4996638;28;20236;-55
2023/01/26 13:48:43;;;;;;;15.30;8.37;;;;;;;;;;4998533;28;20224;-57
2023/01/26 13:51:14;;;;;;;14.13;8.47;;;;;;;;;;4995214;28;20223;-57
2023/01/26 13:53:44;;;;;;;14.47;8.17;;;;;;;;;;4995463;28;20211;-59
2023/01/26 13:56:21;;;;;;;15.67;8.67;;;;;;;;;;4996495;28;20207;-56
2023/01/26 13:58:48;;;;;;;14.67;9.10;;;;;;;;;;5004532;28;20255;-56
2023/01/26 14:01:17;;;;;;;12.87;8.77;;;;;;;;;;4999488;28;20363;-57
2023/01/26 14:03:44;;;;;;;46.80;9.80;;;;;;;;;;5000222;28;20205;-56
2023/01/26 14:06:12;;;;;;;12.87;9.00;;;;;;;;;;4997967;28;20232;-58
2023/01/26 14:08:43;;;;;;;12.80;9.03;;;;;;;;;;4998876;28;20624;-54
2023/01/26 14:11:16;;;;;;;15.10;9.63;;;;;;;;;;4997806;28;20206;-57
2023/01/26 14:13:44;;;;;;;14.07;9.47;;;;;;;;;;4989401;28;20218;-57
2023/01/26 14:16:20;;;;;;;16.23;9.43;;;;;;;;;;4999321;28;20199;-57
2023/01/26 14:18:48;;;;;;;15.20;9.53;;;;;;;;;;4996601;28;20209;-54
2023/01/26 14:21:17;;;;;;;15.80;10.00;;;;;;;;;;4998364;28;20201;-58
2023/01/26 14:23:46;;;;;;;15.63;10.03;;;;;;;;;;4989056;28;20237;-57
2023/01/26 14:26:17;;;;;;;13.47;8.70;;;;;;;;;;4996006;28;20236;-57
2023/01/26 14:28:46;;;;;;;13.33;8.33;;;;;;;;;;5002188;28;20213;-57
2023/01/26 14:31:16;;;;;;;13.97;9.17;;;;;;;;;;4997683;28;20196;-56
2023/01/26 14:33:43;;;;;;;16.17;10.60;;;;;;;;;;4995531;28;20212;-54
2023/01/26 14:36:14;;;;;;;13.90;9.03;;;;;;;;;;4998132;28;20202;-55
2023/01/26 14:38:42;;;;;;;14.57;9.00;;;;;;;;;;5005672;28;20211;-57
2023/01/26 14:41:13;;;;;;;15.10;10.37;;;;;;;;;;5000899;28;20231;-58
2023/01/26 14:43:40;;;;;;;14.07;9.40;;;;;;;;;;4995833;28;20236;-58
2023/01/26 14:46:09;;;;;;;17.97;11.50;;;;;;;;;;4998147;28;20226;-59
2023/01/26 14:48:40;;;;;;;14.57;11.00;;;;;;;;;;4999700;28;20217;-56
2023/01/26 14:51:07;;;;;;;16.57;9.47;;;;;;;;;;4995804;28;20219;-55
2023/01/26 14:53:35;;;;;;;15.07;9.50;;;;;;;;;;4999783;28;20201;-57
2023/01/26 14:56:02;;;;;;;14.07;10.20;;;;;;;;;;4997050;28;20197;-59
2023/01/26 14:58:31;;;;;;;17.70;12.30;;;;;;;;;;4997166;28;20205;-55
2023/01/26 15:00:59;;;;;;;15.20;9.83;;;;;;;;;;5000227;28;20209;-58
2023/01/26 15:03:27;;;;;;;17.93;11.73;;;;;;;;;;4997096;28;20201;-58
2023/01/26 15:06:17;;;;;;;17.50;12.20;;;;;;;;;;4999450;28;20231;-56
2023/01/26 15:08:53;;;;;;;15.90;10.93;;;;;;;;;;5002825;28;20205;-57
2023/01/26 15:14:25;;;;;;;16.07;10.40;;;;;;;;;;5005651;28;20211;-56
2023/01/26 15:16:54;;;;;;;12.53;9.50;;;;;;;;;;4992623;28;20215;-56
2023/01/26 15:19:23;;;;;;;11.23;8.60;;;;;;;;;;5002045;28;20707;-54
2023/01/26 15:21:50;;;;;;;15.70;9.87;;;;;;;;;;4996627;28;20212;-57
2023/01/26 15:24:18;;;;;;;13.63;9.47;;;;;;;;;;5002310;28;20232;-57
2023/01/26 15:26:45;;;;;;;14.17;9.63;;;;;;;;;;4996995;28;20252;-58
2023/01/26 15:29:18;;;;;;;14.60;9.90;;;;;;;;;;4999249;28;20201;-56
2023/01/26 15:31:51;;;;;;;14.10;9.00;;;;;;;;;;4999133;28;20208;-56
2023/01/26 15:34:35;;;;;;;14.37;9.37;;;;;;;;;;5002142;28;20207;-54
2023/01/26 15:37:02;;;;;;;16.23;9.97;;;;;;;;;;5002082;28;20231;-53
2023/01/26 15:39:30;;;;;;;13.90;8.47;;;;;;;;;;5003665;28;20313;-55
2023/01/26 15:42:05;;;;;;;13.30;9.00;;;;;;;;;;5002576;28;20205;-55
2023/01/26 15:44:32;;;;;;;12.80;8.57;;;;;;;;;;4998613;28;20292;-57
2023/01/26 15:46:59;;;;;;;13.23;8.83;;;;;;;;;;4995611;28;20220;-56
2023/01/26 15:49:26;;;;;;;14.57;9.17;;;;;;;;;;5000596;28;20207;-56
2023/01/26 15:51:55;;;;;;;15.00;9.17;;;;;;;;;;4992385;28;20200;-56